Login to view products.
 
Sunday, June 24, 2018 (01:19 UTC)
Al Bateen Executive Airport
ICAO: OMAD
IATA: AZI
  • METAR OMAD 240100Z VRB02KT CAVOK 31/23 Q0999 BECMG 26005KT=
  • TAF OMAD 232300Z 2400/2506 26005KT 8000 NSC BECMG 2403/2405 32013KT BECMG 2417/2419 24007KT PROB30 2500/2503 4000 HZ BECMG 2504/2506 32014KT=
D:\Input Parser\Destinations\Final\23\OMADL000623001598766873.txt